Time;durP1;ratioP1;P1;durP2;ratioP2;P2;SDS_P1;SDS_P2;PMS_P1;PMS_P2;Temp;Humidity;BMP_temperature;BMP_pressure;BME280_temperature;BME280_humidity;BME280_pressure;Samples;Min_cycle;Max_cycle;Signal;HPM_P1;HPM_P2
2023/03/04 00:01:21;;;;;;;13.80;7.63;;;;;;;6.26;100.00;99764.31;31360532;28;20069;-76
2023/03/04 00:16:27;;;;;;;20.23;8.13;;;;;;;6.80;100.00;99743.81;31357215;28;20106;-75
2023/03/04 00:31:29;;;;;;;18.05;7.20;;;;;;;6.70;100.00;99733.88;31353192;28;20062;-85
2023/03/04 00:46:31;;;;;;;13.27;6.67;;;;;;;6.62;100.00;99727.00;31352311;28;20069;-75
2023/03/04 01:01:33;;;;;;;14.60;6.07;;;;;;;6.55;100.00;99729.78;31357354;28;20114;-73
2023/03/04 01:16:35;;;;;;;11.63;5.67;;;;;;;6.46;100.00;99717.53;31381881;28;20041;-85
2023/03/04 01:31:37;;;;;;;10.73;5.40;;;;;;;6.01;100.00;99718.66;31362366;28;20130;-85
2023/03/04 01:46:45;;;;;;;13.07;6.03;;;;;;;5.92;100.00;99721.03;31362158;28;20053;-83
2023/03/04 02:01:50;;;;;;;12.27;5.90;;;;;;;6.46;100.00;99709.44;31359788;28;20560;-84
2023/03/04 02:16:52;;;;;;;13.90;6.50;;;;;;;6.11;100.00;99725.91;31359268;28;20049;-76
2023/03/04 02:31:54;;;;;;;11.47;6.50;;;;;;;6.19;100.00;99710.44;31348362;28;20540;-74
2023/03/04 02:46:57;;;;;;;21.80;7.07;;;;;;;5.97;100.00;99715.22;31346567;28;20464;-76
2023/03/04 03:01:59;;;;;;;17.37;6.20;;;;;;;5.69;100.00;99706.16;31381779;28;20123;-75
2023/03/04 03:17:01;;;;;;;21.97;8.60;;;;;;;5.51;100.00;99716.25;31355634;28;20045;-74
2023/03/04 03:32:03;;;;;;;17.63;7.83;;;;;;;5.45;100.00;99723.22;31356030;28;20057;-76
2023/03/04 03:47:05;;;;;;;18.67;8.33;;;;;;;5.33;100.00;99710.22;31354036;28;20069;-74
2023/03/04 04:02:07;;;;;;;11.80;6.57;;;;;;;5.25;100.00;99711.38;31366896;28;20060;-85
2023/03/04 04:17:10;;;;;;;13.43;7.10;;;;;;;4.98;100.00;99727.25;31359343;28;20025;-87
2023/03/04 04:32:12;;;;;;;20.77;8.53;;;;;;;4.82;100.00;99729.59;31372749;28;20061;-84
2023/03/04 04:47:14;;;;;;;18.00;8.50;;;;;;;4.56;100.00;99725.41;31356133;28;20426;-75
2023/03/04 05:02:16;;;;;;;13.37;7.13;;;;;;;4.90;100.00;99720.38;31351346;28;20518;-77
2023/03/04 05:17:18;;;;;;;16.57;7.87;;;;;;;5.73;100.00;99727.69;31335941;28;20512;-76
2023/03/04 05:32:20;;;;;;;13.97;7.40;;;;;;;6.50;100.00;99744.47;31336627;28;20498;-78
2023/03/04 05:47:22;;;;;;;19.57;9.30;;;;;;;7.65;100.00;99759.00;31343488;28;20053;-75
2023/03/04 06:02:24;;;;;;;26.17;9.10;;;;;;;9.03;100.00;99761.44;31319497;28;20061;-75
2023/03/04 06:17:29;;;;;;;19.23;8.57;;;;;;;10.37;100.00;99757.06;31337998;28;20053;-76
2023/03/04 06:32:31;;;;;;;19.00;9.77;;;;;;;11.20;93.95;99757.22;31346690;28;20122;-75
2023/03/04 06:47:33;;;;;;;20.10;9.60;;;;;;;12.19;85.99;99758.19;31367716;28;20072;-74
2023/03/04 07:02:35;;;;;;;24.27;10.93;;;;;;;12.91;77.03;99768.28;31338007;28;20134;-76
2023/03/04 07:17:37;;;;;;;21.80;10.60;;;;;;;13.70;70.96;99756.06;31351822;28;20071;-77
2023/03/04 07:32:39;;;;;;;22.93;10.63;;;;;;;14.65;64.13;99762.44;31339652;28;20052;-75
2023/03/04 07:47:41;;;;;;;16.83;9.33;;;;;;;15.56;58.16;99747.97;31361665;28;20060;-78
2023/03/04 08:02:43;;;;;;;13.73;7.60;;;;;;;16.01;52.05;99752.50;31369029;28;20064;-82
2023/03/04 08:17:45;;;;;;;13.40;7.20;;;;;;;16.75;48.13;99741.13;31365618;28;20052;-81
2023/03/04 08:32:47;;;;;;;15.83;6.87;;;;;;;17.51;43.07;99723.75;31356060;28;20045;-79
2023/03/04 08:47:50;;;;;;;13.60;4.90;;;;;;;17.03;40.17;99707.50;31375290;28;20060;-81
2023/03/04 09:02:52;;;;;;;15.87;5.10;;;;;;;17.82;39.12;99704.06;31370564;28;20464;-81
2023/03/04 09:17:54;;;;;;;13.53;6.03;;;;;;;17.97;40.08;99693.78;31378544;28;20044;-83
2023/03/04 09:32:56;;;;;;;14.73;6.00;;;;;;;17.96;39.28;99664.06;31355632;28;20098;-80
2023/03/04 09:47:58;;;;;;;16.00;6.97;;;;;;;16.06;42.81;99638.13;31380317;28;20048;-79
2023/03/04 10:03:09;;;;;;;20.33;7.67;;;;;;;17.32;41.42;99607.25;31363830;28;20107;-84
2023/03/04 10:18:26;;;;;;;25.57;8.67;;;;;;;17.09;42.28;99605.38;31353161;28;20041;-83
2023/03/04 10:33:33;;;;;;;17.37;8.07;;;;;;;17.07;43.27;99594.13;31332807;28;20064;-75
2023/03/04 10:48:46;;;;;;;17.20;7.63;;;;;;;17.33;42.80;99565.63;31333311;28;20453;-75
2023/03/04 11:03:48;;;;;;;18.03;8.37;;;;;;;17.03;42.70;99540.22;31348199;28;20053;-79
2023/03/04 11:18:54;;;;;;;14.90;8.37;;;;;;;16.19;43.90;99518.91;31409257;28;20148;-78
2023/03/04 11:34:06;;;;;;;17.67;6.57;;;;;;;16.08;41.73;99506.97;31362690;28;20045;-80
2023/03/04 11:49:42;;;;;;;11.33;6.47;;;;;;;16.94;40.12;99498.47;31339114;28;20045;-78
2023/03/04 12:05:09;;;;;;;15.53;6.10;;;;;;;17.49;39.17;99451.06;31371688;28;20106;-73
2023/03/04 12:20:35;;;;;;;16.17;7.03;;;;;;;15.77;41.77;99447.94;31347650;28;20053;-73
2023/03/04 12:36:03;;;;;;;13.00;6.27;;;;;;;13.59;47.06;99423.03;31335669;28;20503;-73
2023/03/04 12:51:18;;;;;;;14.73;6.20;;;;;;;12.74;49.89;99410.91;31347172;28;20102;-73
2023/03/04 13:06:35;;;;;;;11.97;5.67;;;;;;;12.51;52.12;99404.03;31333802;28;20430;-72
2023/03/04 13:21:45;;;;;;;10.90;5.47;;;;;;;12.32;51.64;99375.19;31331934;28;20048;-76
2023/03/04 13:36:57;;;;;;;15.43;6.47;;;;;;;12.23;51.53;99358.84;31340525;28;20632;-74
2023/03/04 13:52:51;;;;;;;13.10;6.33;;;;;;;11.78;52.85;99343.81;31360946;28;20080;-75
2023/03/04 14:07:53;;;;;;;11.43;5.57;;;;;;;11.60;50.36;99338.19;31326722;28;20053;-74
2023/03/04 14:22:57;;;;;;;9.87;4.93;;;;;;;11.43;52.22;99312.44;31335899;28;20144;-78
2023/03/04 14:38:25;;;;;;;10.13;5.83;;;;;;;11.51;51.50;99302.81;31387704;28;20769;-80
2023/03/04 14:53:29;;;;;;;11.90;5.67;;;;;;;11.39;53.50;99300.91;31315208;28;20048;-81
2023/03/04 15:08:38;;;;;;;14.27;5.87;;;;;;;10.66;56.86;99306.50;31380748;28;20049;-80
2023/03/04 15:23:40;;;;;;;10.57;5.37;;;;;;;10.33;60.08;99288.97;31321844;28;20091;-80
2023/03/04 15:38:46;;;;;;;14.37;5.47;;;;;;;10.04;61.67;99289.06;31364068;28;20458;-78
2023/03/04 15:53:54;;;;;;;11.53;5.97;;;;;;;9.57;69.09;99285.00;31335061;28;20380;-80
2023/03/04 16:08:57;;;;;;;15.43;6.57;;;;;;;9.39;75.77;99300.25;31338430;28;20055;-78
2023/03/04 16:23:59;;;;;;;14.33;6.63;;;;;;;9.20;79.99;99289.16;31363324;28;20113;-81
2023/03/04 16:39:09;;;;;;;11.77;6.33;;;;;;;8.97;84.95;99286.66;31356308;28;20049;-80
2023/03/04 16:54:16;;;;;;;13.67;6.90;;;;;;;9.12;88.03;99276.22;31332941;28;20163;-81
2023/03/04 17:09:18;;;;;;;29.67;11.30;;;;;;;8.97;93.06;99265.00;31342194;28;20049;-78
2023/03/04 17:24:20;;;;;;;14.97;6.17;;;;;;;8.63;98.44;99251.97;31347644;28;20061;-78
2023/03/04 17:39:23;;;;;;;12.77;5.57;;;;;;;8.43;100.00;99254.78;31331565;28;20560;-78
2023/03/04 17:54:27;;;;;;;14.37;7.50;;;;;;;8.17;100.00;99259.22;31311312;28;20062;-79
2023/03/04 18:09:29;;;;;;;16.30;8.13;;;;;;;8.01;100.00;99247.66;31310614;28;20049;-78
2023/03/04 18:24:31;;;;;;;20.80;10.37;;;;;;;7.93;100.00;99251.69;31353835;28;20053;-80
2023/03/04 18:39:44;;;;;;;26.00;11.67;;;;;;;7.71;100.00;99249.47;31342703;28;20084;-80
2023/03/04 18:54:52;;;;;;;30.77;14.63;;;;;;;7.47;100.00;99256.16;31302997;28;20463;-79
2023/03/04 19:09:54;;;;;;;23.30;10.50;;;;;;;7.37;100.00;99267.91;31323860;28;20041;-82
2023/03/04 19:24:56;;;;;;;15.27;9.20;;;;;;;7.30;100.00;99251.88;31344030;28;20064;-80
2023/03/04 19:39:58;;;;;;;23.00;8.57;;;;;;;7.47;100.00;99245.34;31345074;28;20053;-80
2023/03/04 19:55:01;;;;;;;12.13;6.87;;;;;;;7.00;100.00;99231.25;31370902;28;20045;-81
2023/03/04 20:10:03;;;;;;;19.07;9.27;;;;;;;7.01;100.00;99213.88;31410156;28;20118;-82
2023/03/04 20:25:05;;;;;;;22.50;10.53;;;;;;;6.89;100.00;99211.78;31366311;28;20057;-83
2023/03/04 20:40:14;;;;;;;29.07;13.03;;;;;;;6.68;100.00;99212.94;31383130;28;20139;-82
2023/03/04 20:55:17;;;;;;;27.20;13.60;;;;;;;6.55;100.00;99214.72;31376696;28;20110;-81
2023/03/04 21:10:21;;;;;;;25.90;13.97;;;;;;;6.47;100.00;99204.06;31369535;28;20526;-82
2023/03/04 21:25:25;;;;;;;33.30;15.83;;;;;;;6.52;100.00;99183.19;31366479;28;20480;-78
2023/03/04 21:40:27;;;;;;;27.90;14.47;;;;;;;6.49;100.00;99174.75;31339662;28;20045;-79
2023/03/04 21:55:29;;;;;;;30.87;15.37;;;;;;;6.47;100.00;99181.72;31335159;28;20404;-80
2023/03/04 22:10:30;;;;;;;30.47;15.10;;;;;;;6.67;100.00;99155.53;31320599;28;20048;-79
2023/03/04 22:25:39;;;;;;;31.97;14.77;;;;;;;6.92;100.00;99187.44;31344389;28;20132;-77
2023/03/04 22:40:41;;;;;;;38.37;18.87;;;;;;;7.14;100.00;99201.25;31324785;28;20486;-80
2023/03/04 22:55:43;;;;;;;46.57;19.13;;;;;;;7.38;100.00;99223.53;31355444;28;20560;-77
2023/03/04 23:10:45;;;;;;;49.33;20.20;;;;;;;7.67;100.00;99215.59;31356424;28;20122;-78
2023/03/04 23:25:50;;;;;;;47.27;19.47;;;;;;;7.88;100.00;99213.16;31392982;28;20143;-84
2023/03/04 23:40:52;;;;;;;57.72;22.42;;;;;;;8.14;100.00;99216.06;31378154;28;20490;-86
2023/03/04 23:55:54;;;;;;;64.77;24.40;;;;;;;8.40;100.00;99215.06;31366829;28;20044;-77
